createdAt,value
2023-03-19T00:00:44.446Z,6.47
2023-03-19T00:03:11.418Z,6.43
2023-03-19T00:05:38.519Z,5.80
2023-03-19T00:08:06.381Z,5.80
2023-03-19T00:10:33.235Z,5.30
2023-03-19T00:13:00.451Z,5.63
2023-03-19T00:15:27.324Z,6.03
2023-03-19T00:17:56.387Z,5.47
2023-03-19T00:20:23.274Z,5.40
2023-03-19T00:22:50.118Z,5.17
2023-03-19T00:25:17.355Z,5.53
2023-03-19T00:27:44.473Z,4.93
2023-03-19T00:30:12.253Z,5.20
2023-03-19T00:32:39.469Z,5.60
2023-03-19T00:35:08.585Z,5.10
2023-03-19T00:37:37.248Z,5.73
2023-03-19T00:40:06.379Z,6.23
2023-03-19T00:42:33.559Z,5.07
2023-03-19T00:45:00.829Z,6.70
2023-03-19T00:47:27.757Z,5.67
2023-03-19T00:49:54.724Z,6.27
2023-03-19T00:52:21.633Z,5.30
2023-03-19T00:54:48.704Z,5.90
2023-03-19T00:57:15.714Z,5.83
2023-03-19T00:59:42.641Z,6.50
2023-03-19T01:02:09.521Z,6.00
2023-03-19T01:04:36.519Z,6.27
2023-03-19T01:07:03.648Z,6.70
2023-03-19T01:09:31.069Z,6.80
2023-03-19T01:11:58.438Z,6.90
2023-03-19T01:14:25.588Z,6.00
2023-03-19T01:16:52.476Z,6.40
2023-03-19T01:19:20.060Z,6.20
2023-03-19T01:21:47.025Z,6.10
2023-03-19T01:24:14.115Z,7.47
2023-03-19T01:26:41.386Z,6.60
2023-03-19T01:29:09.515Z,6.43
2023-03-19T01:31:37.599Z,6.73
2023-03-19T01:34:04.743Z,7.13
2023-03-19T01:36:32.088Z,5.70
2023-03-19T01:38:59.306Z,6.03
2023-03-19T01:41:26.386Z,6.83
2023-03-19T01:43:53.342Z,6.47
2023-03-19T01:46:36.849Z,7.80
2023-03-19T01:49:10.642Z,6.30
2023-03-19T01:51:45.625Z,6.70
2023-03-19T01:54:20.588Z,6.27
2023-03-19T01:56:58.270Z,6.40
2023-03-19T01:59:37.700Z,6.70
2023-03-19T02:02:31.267Z,5.47
2023-03-19T02:05:10.646Z,6.33
2023-03-19T02:07:42.396Z,6.23
2023-03-19T02:10:16.767Z,6.17
2023-03-19T02:12:43.689Z,6.53
2023-03-19T02:15:11.438Z,6.03
2023-03-19T02:17:40.441Z,6.70
2023-03-19T02:20:47.053Z,6.80
2023-03-19T02:23:47.936Z,7.33
2023-03-19T02:26:23.510Z,7.83
2023-03-19T02:28:53.523Z,8.50
2023-03-19T02:31:21.311Z,6.50
2023-03-19T02:34:27.532Z,8.87
2023-03-19T02:37:33.532Z,7.53
2023-03-19T02:40:13.587Z,8.67
2023-03-19T02:42:40.808Z,7.00
2023-03-19T02:45:08.808Z,7.70
2023-03-19T02:47:35.753Z,7.17
2023-03-19T02:50:02.794Z,6.83
2023-03-19T02:52:29.714Z,6.70
2023-03-19T02:54:56.577Z,6.20
2023-03-19T02:57:23.438Z,6.43
2023-03-19T02:59:50.320Z,7.33
2023-03-19T03:02:17.446Z,7.13
2023-03-19T03:04:45.589Z,6.67
2023-03-19T03:07:12.912Z,8.13
2023-03-19T03:09:39.925Z,7.90
2023-03-19T03:12:08.279Z,7.57
2023-03-19T03:14:35.884Z,7.40
2023-03-19T03:17:02.742Z,6.60
2023-03-19T03:19:29.645Z,6.30
2023-03-19T03:21:56.630Z,6.87
2023-03-19T03:24:24.164Z,6.63
2023-03-19T03:26:51.033Z,6.23
2023-03-19T03:29:18.094Z,6.20
2023-03-19T03:31:45.756Z,7.20
2023-03-19T03:34:12.678Z,7.20
2023-03-19T03:36:39.665Z,6.27
2023-03-19T03:39:06.726Z,6.27
2023-03-19T03:41:33.696Z,6.90
2023-03-19T03:44:01.070Z,6.70
2023-03-19T03:46:27.953Z,5.50
2023-03-19T03:48:54.825Z,7.40
2023-03-19T03:51:22.066Z,7.43
2023-03-19T03:53:49.064Z,6.93
2023-03-19T03:56:16.187Z,6.93
2023-03-19T03:58:43.321Z,7.17
2023-03-19T04:01:19.075Z,7.33
2023-03-19T04:03:46.460Z,6.60
2023-03-19T04:06:19.749Z,6.90
2023-03-19T04:08:47.072Z,6.67
2023-03-19T04:11:15.009Z,7.17
2023-03-19T04:13:42.139Z,8.30
2023-03-19T04:16:11.029Z,8.40
2023-03-19T04:18:38.781Z,7.70
2023-03-19T04:21:07.096Z,7.53
2023-03-19T04:23:34.508Z,8.03
2023-03-19T04:26:09.584Z,7.57
2023-03-19T04:28:37.371Z,7.40
2023-03-19T04:31:09.216Z,7.63
2023-03-19T04:33:36.748Z,8.20
2023-03-19T04:36:05.020Z,7.90
2023-03-19T04:38:32.002Z,6.50
2023-03-19T04:40:59.060Z,6.70
2023-03-19T04:43:26.232Z,7.67
2023-03-19T04:45:53.237Z,7.57
2023-03-19T04:48:20.490Z,7.27
2023-03-19T04:50:48.165Z,7.90
2023-03-19T04:53:15.012Z,8.40
2023-03-19T04:55:42.317Z,8.63
2023-03-19T04:58:09.256Z,8.20
2023-03-19T05:00:36.796Z,7.97
2023-03-19T05:03:03.935Z,7.53
2023-03-19T05:05:31.251Z,9.20
2023-03-19T05:07:58.309Z,7.70
2023-03-19T05:10:25.230Z,8.23
2023-03-19T05:12:52.085Z,8.53
2023-03-19T05:15:19.010Z,8.10
2023-03-19T05:17:45.923Z,7.43
2023-03-19T05:20:13.156Z,8.47
2023-03-19T05:22:40.042Z,8.70
2023-03-19T05:25:07.555Z,7.80
2023-03-19T05:27:34.757Z,8.40
2023-03-19T05:30:01.707Z,9.07
2023-03-19T05:32:29.318Z,8.80
2023-03-19T05:34:56.193Z,9.73
2023-03-19T05:37:23.042Z,8.20
2023-03-19T05:39:51.856Z,8.43
2023-03-19T05:42:18.796Z,9.10
2023-03-19T05:44:45.704Z,8.33
2023-03-19T05:47:12.891Z,10.37
2023-03-19T05:49:39.744Z,9.83
2023-03-19T05:52:07.523Z,11.20
2023-03-19T05:54:34.477Z,8.90
2023-03-19T05:57:03.413Z,8.73
2023-03-19T05:59:31.320Z,8.23
2023-03-19T06:01:58.383Z,8.70
2023-03-19T06:04:25.870Z,7.67
2023-03-19T06:06:52.800Z,7.50
2023-03-19T06:09:19.674Z,8.60
2023-03-19T06:11:46.563Z,9.87
2023-03-19T06:14:13.430Z,8.57
2023-03-19T06:16:40.284Z,9.63
2023-03-19T06:19:07.240Z,7.80
2023-03-19T06:21:34.589Z,7.60
2023-03-19T06:24:01.631Z,9.40
2023-03-19T06:26:28.567Z,9.57
2023-03-19T06:28:55.664Z,9.50
2023-03-19T06:31:23.610Z,8.60
2023-03-19T06:33:50.738Z,8.20
2023-03-19T06:36:17.936Z,9.23
2023-03-19T06:38:44.934Z,9.17
2023-03-19T06:41:12.329Z,8.17
2023-03-19T06:43:41.842Z,8.07
2023-03-19T06:46:11.668Z,8.20
2023-03-19T06:48:39.036Z,8.87
2023-03-19T06:51:06.867Z,8.50
2023-03-19T06:53:34.187Z,8.30
2023-03-19T06:56:01.294Z,8.37
2023-03-19T06:58:28.254Z,8.13
2023-03-19T07:00:55.539Z,8.23
2023-03-19T07:03:22.983Z,9.30
2023-03-19T07:05:53.189Z,7.70
2023-03-19T07:08:20.623Z,7.50
2023-03-19T07:10:47.733Z,7.90
2023-03-19T07:13:14.792Z,7.47
2023-03-19T07:15:41.655Z,7.40
2023-03-19T07:18:08.548Z,8.30
2023-03-19T07:20:35.846Z,7.97
2023-03-19T07:23:03.225Z,7.60
2023-03-19T07:25:30.531Z,7.10
2023-03-19T07:27:57.637Z,8.30
2023-03-19T07:30:24.554Z,7.00
2023-03-19T07:32:51.449Z,7.47
2023-03-19T07:35:18.397Z,6.53
2023-03-19T07:37:45.569Z,6.20
2023-03-19T07:40:12.736Z,6.80
2023-03-19T07:42:39.921Z,6.73
2023-03-19T07:45:08.320Z,6.63
2023-03-19T07:47:35.245Z,6.80
2023-03-19T07:50:02.314Z,6.40
2023-03-19T07:52:29.262Z,6.20
2023-03-19T07:54:56.275Z,6.57
2023-03-19T07:57:25.228Z,6.10
2023-03-19T07:59:52.507Z,6.63
2023-03-19T08:02:22.709Z,6.63
2023-03-19T08:04:50.057Z,6.80
2023-03-19T08:07:17.149Z,5.33
2023-03-19T08:09:44.310Z,6.30
2023-03-19T08:12:11.558Z,5.27
2023-03-19T08:14:39.134Z,5.57
2023-03-19T08:17:06.317Z,6.50
2023-03-19T08:19:33.227Z,5.40
2023-03-19T08:22:00.255Z,4.90
2023-03-19T08:24:27.205Z,5.63
2023-03-19T08:26:54.182Z,6.00
2023-03-19T08:29:21.757Z,5.30
2023-03-19T08:31:48.658Z,6.20
2023-03-19T08:34:15.553Z,5.20
2023-03-19T08:36:42.482Z,5.20
2023-03-19T08:39:09.374Z,5.40
2023-03-19T08:41:36.311Z,4.80
2023-03-19T08:44:03.763Z,5.20
2023-03-19T08:46:31.884Z,4.73
2023-03-19T08:48:59.655Z,5.10
2023-03-19T08:51:28.211Z,3.93
2023-03-19T08:53:55.123Z,4.03
2023-03-19T08:56:22.034Z,5.00
2023-03-19T08:58:48.928Z,3.60
2023-03-19T09:03:45.296Z,3.30
2023-03-19T09:06:16.942Z,3.80
2023-03-19T09:08:44.625Z,3.50
2023-03-19T09:11:11.858Z,4.10
2023-03-19T09:13:38.784Z,4.13
2023-03-19T09:16:07.389Z,3.37
2023-03-19T09:18:35.609Z,3.50
2023-03-19T09:21:03.270Z,3.13
2023-03-19T09:23:30.247Z,3.20
2023-03-19T09:25:57.120Z,3.87
2023-03-19T09:28:24.399Z,3.80
2023-03-19T09:30:52.056Z,3.87
2023-03-19T09:33:21.409Z,3.00
2023-03-19T09:35:54.104Z,3.00
2023-03-19T09:38:22.669Z,4.50
2023-03-19T09:41:37.403Z,3.97
2023-03-19T09:44:28.081Z,3.70
2023-03-19T09:47:27.795Z,4.70
2023-03-19T09:50:01.271Z,3.80
2023-03-19T09:53:01.088Z,4.10
2023-03-19T09:55:42.645Z,3.27
2023-03-19T09:58:35.934Z,3.70
2023-03-19T10:01:04.382Z,3.50
2023-03-19T10:03:51.283Z,4.20
2023-03-19T10:06:35.477Z,3.50
2023-03-19T10:09:32.599Z,3.60
2023-03-19T10:12:51.549Z,3.53
2023-03-19T10:15:30.102Z,2.90
2023-03-19T10:18:21.311Z,3.97
2023-03-19T10:21:03.420Z,4.07
2023-03-19T10:24:13.539Z,4.07
2023-03-19T10:26:41.293Z,4.60
2023-03-19T10:29:14.561Z,4.80
2023-03-19T10:32:15.297Z,3.50
2023-03-19T10:34:53.794Z,4.47
2023-03-19T10:37:29.233Z,4.00
2023-03-19T10:40:01.532Z,4.40
2023-03-19T10:42:48.610Z,4.60
2023-03-19T10:45:39.183Z,3.77
2023-03-19T10:48:13.189Z,4.70
2023-03-19T10:51:00.154Z,4.37
2023-03-19T10:53:38.300Z,4.50
2023-03-19T10:56:29.325Z,4.07
2023-03-19T10:59:01.589Z,4.60
2023-03-19T11:01:40.003Z,4.30
2023-03-19T11:04:24.149Z,4.07
2023-03-19T11:06:56.269Z,4.50
2023-03-19T11:09:42.460Z,3.83
2023-03-19T11:12:20.758Z,4.57
2023-03-19T11:14:52.118Z,3.50
2023-03-19T11:17:39.508Z,3.90
2023-03-19T11:20:15.763Z,3.30
2023-03-19T11:22:43.205Z,4.10
2023-03-19T11:25:29.312Z,3.23
2023-03-19T11:28:10.067Z,3.87
2023-03-19T11:31:21.496Z,4.30
2023-03-19T11:33:51.971Z,3.80
2023-03-19T11:36:39.426Z,4.20
2023-03-19T11:39:35.730Z,3.90
2023-03-19T11:42:40.646Z,2.70
2023-03-19T11:46:08.840Z,3.10
2023-03-19T11:49:21.487Z,3.17
2023-03-19T11:52:05.484Z,2.97
2023-03-19T11:54:56.367Z,2.40
2023-03-19T11:57:54.529Z,2.30
2023-03-19T12:00:50.697Z,2.97
2023-03-19T12:04:26.472Z,2.70
2023-03-19T12:07:39.281Z,2.07
2023-03-19T12:10:59.184Z,2.87
2023-03-19T12:14:26.629Z,2.30
2023-03-19T12:17:17.121Z,3.07
2023-03-19T12:20:17.721Z,2.60
2023-03-19T12:23:23.014Z,2.80
2023-03-19T12:26:04.994Z,2.80
2023-03-19T12:29:16.671Z,2.70
2023-03-19T12:32:21.524Z,2.20
2023-03-19T12:35:01.017Z,2.30
2023-03-19T12:37:46.697Z,2.00
2023-03-19T12:40:29.835Z,2.73
2023-03-19T12:43:06.653Z,2.47
2023-03-19T12:45:44.945Z,2.20
2023-03-19T12:48:25.197Z,3.03
2023-03-19T12:51:03.057Z,2.23
2023-03-19T12:54:14.953Z,2.60
2023-03-19T12:57:12.238Z,3.00
2023-03-19T13:00:08.404Z,2.97
2023-03-19T13:03:34.594Z,3.27
2023-03-19T13:06:35.671Z,2.50
2023-03-19T13:09:32.358Z,3.10
2023-03-19T13:12:28.001Z,2.80
2023-03-19T13:15:14.069Z,2.70
2023-03-19T13:18:16.617Z,2.53
2023-03-19T13:21:33.674Z,2.63
2023-03-19T13:24:34.135Z,2.57
2023-03-19T13:27:03.372Z,2.53
2023-03-19T13:29:36.801Z,2.00
2023-03-19T13:32:27.252Z,2.27
2023-03-19T13:35:44.508Z,2.47
2023-03-19T13:38:20.476Z,2.30
2023-03-19T13:40:52.878Z,2.37
2023-03-19T13:43:30.731Z,2.40
2023-03-19T13:46:16.179Z,2.30
2023-03-19T13:48:46.182Z,2.60
2023-03-19T13:51:23.733Z,2.50
2023-03-19T13:54:12.860Z,2.60
2023-03-19T13:57:33.675Z,2.20
2023-03-19T14:00:44.877Z,2.30
2023-03-19T14:03:35.196Z,2.50
2023-03-19T14:06:03.725Z,2.17
2023-03-19T14:08:47.355Z,2.10
2023-03-19T14:11:33.446Z,2.33
2023-03-19T14:14:16.296Z,2.27
2023-03-19T14:16:49.122Z,2.27
2023-03-19T14:19:20.972Z,2.70
2023-03-19T14:22:11.455Z,2.27
2023-03-19T14:24:56.670Z,2.10
2023-03-19T14:27:35.945Z,2.47
2023-03-19T14:30:29.124Z,2.20
2023-03-19T14:33:05.687Z,2.70
2023-03-19T14:35:44.305Z,2.43
2023-03-19T14:38:35.333Z,2.37
2023-03-19T14:41:08.785Z,2.17
2023-03-19T14:43:50.654Z,2.40
2023-03-19T14:46:32.692Z,2.27
2023-03-19T14:50:26.079Z,2.47
2023-03-19T14:53:37.401Z,2.70
2023-03-19T14:56:32.589Z,2.50
2023-03-19T14:59:03.641Z,2.30
2023-03-19T15:01:40.395Z,3.00
2023-03-19T15:04:16.422Z,2.37
2023-03-19T15:07:00.933Z,2.50
2023-03-19T15:09:33.927Z,2.53
2023-03-19T15:12:51.777Z,2.70
2023-03-19T15:16:13.214Z,2.87
2023-03-19T15:18:40.696Z,3.13
2023-03-19T15:21:08.432Z,2.73
2023-03-19T15:23:41.042Z,2.40
2023-03-19T15:26:11.559Z,2.80
2023-03-19T15:28:53.807Z,2.23
2023-03-19T15:31:36.578Z,2.20
2023-03-19T15:34:29.734Z,2.60
2023-03-19T15:37:12.486Z,2.70
2023-03-19T15:39:55.849Z,3.03
2023-03-19T15:42:27.347Z,2.90
2023-03-19T15:45:11.496Z,4.80
2023-03-19T15:47:54.158Z,3.43
2023-03-19T15:50:29.084Z,3.00
2023-03-19T15:53:10.881Z,2.57
2023-03-19T15:55:39.770Z,2.77
2023-03-19T15:58:16.942Z,2.80
2023-03-19T16:00:44.243Z,2.77
2023-03-19T16:03:28.772Z,2.67
2023-03-19T16:06:12.571Z,3.33
2023-03-19T16:08:53.314Z,3.10
2023-03-19T16:11:42.088Z,3.37
2023-03-19T16:14:41.180Z,3.13
2023-03-19T16:17:35.179Z,2.70
2023-03-19T16:20:04.607Z,3.17
2023-03-19T16:22:33.277Z,2.80
2023-03-19T16:25:02.394Z,2.87
2023-03-19T16:27:39.429Z,2.97
2023-03-19T16:30:27.670Z,2.33
2023-03-19T16:33:05.497Z,2.60
2023-03-19T16:35:36.610Z,5.13
2023-03-19T16:38:24.531Z,8.80
2023-03-19T16:41:25.406Z,7.90
2023-03-19T16:43:54.731Z,4.97
2023-03-19T16:46:28.256Z,4.50
2023-03-19T16:48:59.539Z,4.03
2023-03-19T16:51:26.678Z,3.27
2023-03-19T16:53:53.878Z,3.67
2023-03-19T16:56:21.022Z,3.07
2023-03-19T16:58:48.374Z,3.07
2023-03-19T17:01:23.984Z,4.07
2023-03-19T17:03:52.830Z,3.30
2023-03-19T17:06:21.963Z,3.70
2023-03-19T17:08:49.378Z,3.10
2023-03-19T17:11:43.665Z,2.93
2023-03-19T17:14:22.356Z,3.53
2023-03-19T17:16:54.359Z,3.20
2023-03-19T17:19:35.625Z,2.83
2023-03-19T17:22:02.925Z,2.80
2023-03-19T17:24:35.105Z,5.20
2023-03-19T17:27:04.436Z,8.43
2023-03-19T17:29:33.203Z,13.60
2023-03-19T17:32:02.468Z,5.77
2023-03-19T17:34:32.078Z,3.70
2023-03-19T17:37:03.604Z,4.40
2023-03-19T17:39:31.445Z,4.00
2023-03-19T17:41:59.577Z,4.90
2023-03-19T17:44:29.066Z,5.70
2023-03-19T17:46:56.914Z,3.60
2023-03-19T17:49:31.540Z,3.83
2023-03-19T17:51:59.852Z,5.63
2023-03-19T17:54:27.764Z,10.27
2023-03-19T17:56:56.075Z,14.20
2023-03-19T17:59:23.904Z,5.53
2023-03-19T18:01:51.953Z,5.17
2023-03-19T18:04:22.301Z,4.70
2023-03-19T18:06:54.183Z,4.60
2023-03-19T18:09:28.351Z,4.30
2023-03-19T18:11:55.795Z,4.70
2023-03-19T18:14:22.689Z,4.63
2023-03-19T18:16:50.366Z,4.93
2023-03-19T18:19:38.243Z,5.50
2023-03-19T18:22:17.575Z,6.37
2023-03-19T18:24:44.662Z,5.63
2023-03-19T18:27:11.683Z,4.90
2023-03-19T18:29:38.561Z,8.77
2023-03-19T18:32:16.155Z,35.03
2023-03-19T18:34:43.151Z,31.13
2023-03-19T18:37:17.850Z,18.80
2023-03-19T18:39:45.570Z,19.20
2023-03-19T18:42:14.735Z,18.90
2023-03-19T18:44:42.374Z,12.50
2023-03-19T18:47:16.263Z,11.17
2023-03-19T18:49:43.913Z,8.50
2023-03-19T18:52:17.848Z,6.63
2023-03-19T18:54:45.952Z,6.40
2023-03-19T18:57:15.956Z,7.30
2023-03-19T18:59:43.389Z,10.87
2023-03-19T19:02:20.746Z,10.17
2023-03-19T19:04:48.106Z,12.40
2023-03-19T19:07:16.335Z,12.63
2023-03-19T19:09:43.634Z,12.43
2023-03-19T19:12:18.578Z,11.77
2023-03-19T19:14:46.317Z,11.57
2023-03-19T19:17:23.183Z,10.27
2023-03-19T19:19:50.330Z,6.70
2023-03-19T19:22:19.526Z,4.83
2023-03-19T19:24:46.957Z,5.60
2023-03-19T19:27:26.518Z,4.83
2023-03-19T19:29:53.889Z,3.70
2023-03-19T19:32:29.393Z,4.30
2023-03-19T19:34:57.176Z,4.23
2023-03-19T19:37:24.427Z,4.10
2023-03-19T19:39:52.219Z,3.37
2023-03-19T19:42:22.633Z,3.80
2023-03-19T19:44:56.174Z,3.20
2023-03-19T19:47:23.159Z,3.43
2023-03-19T19:49:50.163Z,4.40
2023-03-19T19:52:19.280Z,4.13
2023-03-19T19:54:47.231Z,5.03
2023-03-19T19:57:22.299Z,4.00
2023-03-19T19:59:51.633Z,6.57
2023-03-19T20:02:26.631Z,4.30
2023-03-19T20:04:53.638Z,4.10
2023-03-19T20:07:20.564Z,4.57
2023-03-19T20:09:48.256Z,4.93
2023-03-19T20:12:27.030Z,3.97
2023-03-19T20:14:54.017Z,4.00
2023-03-19T20:17:21.265Z,3.30
2023-03-19T20:19:48.847Z,4.60
2023-03-19T20:22:16.233Z,3.80
2023-03-19T20:24:43.238Z,3.63
2023-03-19T20:27:23.434Z,3.60
2023-03-19T20:29:50.898Z,3.27
2023-03-19T20:32:38.239Z,2.80
2023-03-19T20:35:21.487Z,3.33
2023-03-19T20:37:50.389Z,2.50
2023-03-19T20:40:19.613Z,2.50
2023-03-19T20:42:52.318Z,3.93
2023-03-19T20:45:25.003Z,4.93
2023-03-19T20:47:52.817Z,5.67
2023-03-19T20:50:28.612Z,5.90
2023-03-19T20:53:00.894Z,5.37
2023-03-19T20:55:37.863Z,8.50
2023-03-19T20:58:29.477Z,6.13
2023-03-19T21:00:59.364Z,5.53
2023-03-19T21:03:31.261Z,7.30
2023-03-19T21:06:06.509Z,8.90
2023-03-19T21:08:43.406Z,8.03
2023-03-19T21:11:38.174Z,6.10
2023-03-19T21:14:06.130Z,4.97
2023-03-19T21:16:33.893Z,5.10
2023-03-19T21:19:01.469Z,4.53
2023-03-19T21:21:34.281Z,4.50
2023-03-19T21:24:20.431Z,3.60
2023-03-19T21:26:47.823Z,3.40
2023-03-19T21:29:32.333Z,3.00
2023-03-19T21:31:59.393Z,3.60
2023-03-19T21:34:26.367Z,2.90
2023-03-19T21:36:53.233Z,3.67
2023-03-19T21:39:20.440Z,2.97
2023-03-19T21:41:48.131Z,3.30
2023-03-19T21:44:22.155Z,3.33
2023-03-19T21:46:49.722Z,3.40
2023-03-19T21:49:16.981Z,3.50
2023-03-19T21:51:44.159Z,4.00
2023-03-19T21:54:11.219Z,4.50
2023-03-19T21:56:43.642Z,3.87
2023-03-19T21:59:23.535Z,4.70
2023-03-19T22:01:50.852Z,4.57
2023-03-19T22:04:19.046Z,3.47
2023-03-19T22:06:46.706Z,3.50
2023-03-19T22:09:13.612Z,4.17
2023-03-19T22:11:42.413Z,3.83
2023-03-19T22:14:24.452Z,3.50
2023-03-19T22:16:55.553Z,4.20
2023-03-19T22:19:23.012Z,3.80
2023-03-19T22:21:50.036Z,3.60
2023-03-19T22:24:16.947Z,4.10
2023-03-19T22:26:49.529Z,4.27
2023-03-19T22:29:23.500Z,3.80
2023-03-19T22:31:53.734Z,4.20
2023-03-19T22:34:25.646Z,4.57
2023-03-19T22:36:53.483Z,5.20
2023-03-19T22:39:20.413Z,4.47
2023-03-19T22:41:49.394Z,4.80
2023-03-19T22:44:40.223Z,4.63
2023-03-19T22:47:21.559Z,5.70
2023-03-19T22:49:48.933Z,3.70
2023-03-19T22:52:16.027Z,4.13
2023-03-19T22:54:43.031Z,3.80
2023-03-19T22:57:17.315Z,4.03
2023-03-19T22:59:44.438Z,3.87
2023-03-19T23:02:14.923Z,4.17
2023-03-19T23:04:42.010Z,4.37
2023-03-19T23:07:13.963Z,6.27
2023-03-19T23:09:41.682Z,6.97
2023-03-19T23:14:34.856Z,4.33
2023-03-19T23:17:17.297Z,5.57
2023-03-19T23:19:44.212Z,5.30
2023-03-19T23:22:16.819Z,4.90
2023-03-19T23:24:44.697Z,5.80
2023-03-19T23:27:26.520Z,5.90
2023-03-19T23:29:54.342Z,6.10
2023-03-19T23:32:21.987Z,5.40
2023-03-19T23:35:00.284Z,5.20
2023-03-19T23:37:28.729Z,5.60
2023-03-19T23:39:56.208Z,5.77
2023-03-19T23:42:31.433Z,5.97
2023-03-19T23:45:03.758Z,5.87
2023-03-19T23:47:31.197Z,5.13
2023-03-19T23:49:58.394Z,7.13
2023-03-19T23:52:25.380Z,7.13
2023-03-19T23:54:52.405Z,6.90
2023-03-19T23:57:27.055Z,7.53
2023-03-19T23:59:54.107Z,7.50
